Aérodrome :
LOGIN :

S'inscrire | Disclaimer

   EN    FR    IT 

 










Légende :    VFR   VFR Marginal   IFR   IFR Intensif   IFR Très Intensif
Visi : 
Plafond : 
>= 8 km
>= 3000ft
5 à 8 km
1000 à 3000 ft
1500m à 5 km
500 à 1000 ft
800 à 1500m
200 à 500 ft
< 800m
< 200 ft
Symboles :   Orages  Brouillard  Fortes neiges  Fortes précipitations  Vent > 20 kt
SIGMETs :   Divers  Orages  Givrage  Turbulence  Onde Orograph.  Cendres Volcan.







- Altitude de l'aérodrome : 26 ft
- Code IATA : GLA
- Voir les cartes d'approche


EGPF - Glasgow

DERNIER METAR :
  • 280750Z AUTO VRB02KT 9999 SCT041 09/05 Q1017

METARs EXPIRÉS :
  • 280720Z AUTO VRB02KT 9999 NCD 08/04 Q1017
  • 280650Z AUTO 11004KT 080V160 9999 NCD 08/04 Q1017
  • 280620Z AUTO VRB01KT 9999 NCD 07/04 Q1017
  • 280550Z AUTO 04003KT 9999 NCD 07/05 Q1017
  • 280520Z AUTO VRB01KT 9999 -RA NCD 06/05 Q1017

TAF TAF EGPF
Valide du 28 à 06h jusqu'au 29 à 06h UTC


280454Z 2806/2906 VRB03KT 9999 SCT045
ATIS : +44 141 887 7449
Pas de NOTAMs connus pour ce terrain.



MET'MAP, la Météo Aéronautique d'un coup d'oeil ! - Copyright ORBIFLY Décembre 2007 - Disclaimer

ORBIFLY MET'MAP TEAM :

Programmation & Développement : Alexandra Zaïnal
Conception & Développement : Baudouin d'Aumeries
Co-Programmation & Développement : Marc-Olivier Méhu
Soutien technique & logistique : Manuel Goepfert

Contact : metmap@orbifly.com




SOURCES & CREDITS :

   NOAA